<?xml version="1.0" encoding="UTF-8" standalone="no" ?>
<gpx xmlns="http://www.topografix.com/GPX/1/1" xmlns:xsi="http://www.w3.org/2001/XMLSchema-instance" xsi:schemaLocation="http://www.topografix.com/GPX/1/1 http://www.topografix.com/GPX/1/1/gpx.xsd" version="1.1" creator="VisuGPX - https://www.visugpx.com">
  <metadata>
    <name>Puylaurens 1</name>
    <desc><![CDATA[Parcours sympa et facil pour faire quand on a besoin de faire un peut de vtt et on n'a pas trop de temps.]]></desc>
  </metadata>
  <trk>
    <name><![CDATA[Puylaurens VTT on GPSies.com]]></name>
    <trkseg>
      <trkpt lat="43.56987" lon="2.00501">
        <ele>295</ele>
        <time>2010-01-01T00:00:00Z</time>
      </trkpt>
      <trkpt lat="43.56987" lon="2.00501">
        <ele>295</ele>
        <time>2010-01-01T00:00:00Z</time>
      </trkpt>
      <trkpt lat="43.56991" lon="2.00501">
        <ele>295</ele>
        <time>2010-01-01T00:00:01Z</time>
      </trkpt>
      <trkpt lat="43.56981" lon="2.00502">
        <ele>295</ele>
        <time>2010-01-01T00:00:06Z</time>
      </trkpt>
      <trkpt lat="43.56965" lon="2.00493">
        <ele>294</ele>
        <time>2010-01-01T00:00:12Z</time>
      </trkpt>
      <trkpt lat="43.5695" lon="2.00482">
        <ele>293</ele>
        <time>2010-01-01T00:00:19Z</time>
      </trkpt>
      <trkpt lat="43.56924" lon="2.00483">
        <ele>293</ele>
        <time>2010-01-01T00:00:30Z</time>
      </trkpt>
      <trkpt lat="43.56898" lon="2.00483">
        <ele>293</ele>
        <time>2010-01-01T00:00:40Z</time>
      </trkpt>
      <trkpt lat="43.56839" lon="2.00445">
        <ele>292</ele>
        <time>2010-01-01T00:01:06Z</time>
      </trkpt>
      <trkpt lat="43.56794" lon="2.00412">
        <ele>292</ele>
        <time>2010-01-01T00:01:27Z</time>
      </trkpt>
      <trkpt lat="43.5674" lon="2.00376">
        <ele>295</ele>
        <time>2010-01-01T00:01:50Z</time>
      </trkpt>
      <trkpt lat="43.56695" lon="2.00355">
        <ele>294</ele>
        <time>2010-01-01T00:02:10Z</time>
      </trkpt>
      <trkpt lat="43.56689" lon="2.00353">
        <ele>294</ele>
        <time>2010-01-01T00:02:12Z</time>
      </trkpt>
      <trkpt lat="43.56659" lon="2.00358">
        <ele>294</ele>
        <time>2010-01-01T00:02:24Z</time>
      </trkpt>
      <trkpt lat="43.56642" lon="2.00368">
        <ele>294</ele>
        <time>2010-01-01T00:02:31Z</time>
      </trkpt>
      <trkpt lat="43.56626" lon="2.00367">
        <ele>294</ele>
        <time>2010-01-01T00:02:38Z</time>
      </trkpt>
      <trkpt lat="43.56622" lon="2.0036">
        <ele>294</ele>
        <time>2010-01-01T00:02:40Z</time>
      </trkpt>
      <trkpt lat="43.56594" lon="2.00285">
        <ele>294</ele>
        <time>2010-01-01T00:03:05Z</time>
      </trkpt>
      <trkpt lat="43.56575" lon="2.00236">
        <ele>295</ele>
        <time>2010-01-01T00:03:21Z</time>
      </trkpt>
      <trkpt lat="43.56578" lon="2.0021">
        <ele>295</ele>
        <time>2010-01-01T00:03:29Z</time>
      </trkpt>
      <trkpt lat="43.56584" lon="2.00204">
        <ele>295</ele>
        <time>2010-01-01T00:03:32Z</time>
      </trkpt>
      <trkpt lat="43.56608" lon="2.00178">
        <ele>294</ele>
        <time>2010-01-01T00:03:44Z</time>
      </trkpt>
      <trkpt lat="43.56637" lon="2.00124">
        <ele>292</ele>
        <time>2010-01-01T00:04:04Z</time>
      </trkpt>
      <trkpt lat="43.56673" lon="2.00059">
        <ele>292</ele>
        <time>2010-01-01T00:04:27Z</time>
      </trkpt>
      <trkpt lat="43.56702" lon="2.00005">
        <ele>293</ele>
        <time>2010-01-01T00:04:47Z</time>
      </trkpt>
      <trkpt lat="43.5674" lon="1.99917">
        <ele>290</ele>
        <time>2010-01-01T00:05:17Z</time>
      </trkpt>
      <trkpt lat="43.56769" lon="1.99854">
        <ele>289</ele>
        <time>2010-01-01T00:05:38Z</time>
      </trkpt>
      <trkpt lat="43.56795" lon="1.99807">
        <ele>289</ele>
        <time>2010-01-01T00:05:55Z</time>
      </trkpt>
      <trkpt lat="43.56818" lon="1.99767">
        <ele>286</ele>
        <time>2010-01-01T00:06:10Z</time>
      </trkpt>
      <trkpt lat="43.56824" lon="1.99746">
        <ele>285</ele>
        <time>2010-01-01T00:06:17Z</time>
      </trkpt>
      <trkpt lat="43.5681" lon="1.9972">
        <ele>285</ele>
        <time>2010-01-01T00:06:26Z</time>
      </trkpt>
      <trkpt lat="43.56756" lon="1.99661">
        <ele>284</ele>
        <time>2010-01-01T00:06:53Z</time>
      </trkpt>
      <trkpt lat="43.56721" lon="1.99604">
        <ele>283</ele>
        <time>2010-01-01T00:07:15Z</time>
      </trkpt>
      <trkpt lat="43.56699" lon="1.99545">
        <ele>280</ele>
        <time>2010-01-01T00:07:35Z</time>
      </trkpt>
      <trkpt lat="43.5668" lon="1.99493">
        <ele>278</ele>
        <time>2010-01-01T00:07:51Z</time>
      </trkpt>
      <trkpt lat="43.56654" lon="1.99467">
        <ele>279</ele>
        <time>2010-01-01T00:08:04Z</time>
      </trkpt>
      <trkpt lat="43.5663" lon="1.99442">
        <ele>279</ele>
        <time>2010-01-01T00:08:16Z</time>
      </trkpt>
      <trkpt lat="43.56606" lon="1.9941">
        <ele>279</ele>
        <time>2010-01-01T00:08:30Z</time>
      </trkpt>
      <trkpt lat="43.56582" lon="1.99377">
        <ele>277</ele>
        <time>2010-01-01T00:08:43Z</time>
      </trkpt>
      <trkpt lat="43.56556" lon="1.99345">
        <ele>277</ele>
        <time>2010-01-01T00:08:57Z</time>
      </trkpt>
      <trkpt lat="43.56533" lon="1.99318">
        <ele>278</ele>
        <time>2010-01-01T00:09:09Z</time>
      </trkpt>
      <trkpt lat="43.5651" lon="1.99292">
        <ele>280</ele>
        <time>2010-01-01T00:09:21Z</time>
      </trkpt>
      <trkpt lat="43.56487" lon="1.99258">
        <ele>283</ele>
        <time>2010-01-01T00:09:35Z</time>
      </trkpt>
      <trkpt lat="43.5647" lon="1.99231">
        <ele>284</ele>
        <time>2010-01-01T00:09:45Z</time>
      </trkpt>
      <trkpt lat="43.56454" lon="1.99209">
        <ele>284</ele>
        <time>2010-01-01T00:09:54Z</time>
      </trkpt>
      <trkpt lat="43.56443" lon="1.99193">
        <ele>284</ele>
        <time>2010-01-01T00:10:00Z</time>
      </trkpt>
      <trkpt lat="43.5642" lon="1.99162">
        <ele>282</ele>
        <time>2010-01-01T00:10:13Z</time>
      </trkpt>
      <trkpt lat="43.56397" lon="1.99129">
        <ele>283</ele>
        <time>2010-01-01T00:10:27Z</time>
      </trkpt>
      <trkpt lat="43.56379" lon="1.9911">
        <ele>284</ele>
        <time>2010-01-01T00:10:36Z</time>
      </trkpt>
      <trkpt lat="43.56363" lon="1.99122">
        <ele>284</ele>
        <time>2010-01-01T00:10:43Z</time>
      </trkpt>
      <trkpt lat="43.56345" lon="1.99149">
        <ele>284</ele>
        <time>2010-01-01T00:10:54Z</time>
      </trkpt>
      <trkpt lat="43.56333" lon="1.99179">
        <ele>284</ele>
        <time>2010-01-01T00:11:04Z</time>
      </trkpt>
      <trkpt lat="43.56321" lon="1.99195">
        <ele>285</ele>
        <time>2010-01-01T00:11:10Z</time>
      </trkpt>
      <trkpt lat="43.56306" lon="1.99193">
        <ele>286</ele>
        <time>2010-01-01T00:11:16Z</time>
      </trkpt>
      <trkpt lat="43.56304" lon="1.99186">
        <ele>286</ele>
        <time>2010-01-01T00:11:18Z</time>
      </trkpt>
      <trkpt lat="43.56297" lon="1.99134">
        <ele>285</ele>
        <time>2010-01-01T00:11:34Z</time>
      </trkpt>
      <trkpt lat="43.56296" lon="1.99126">
        <ele>285</ele>
        <time>2010-01-01T00:11:36Z</time>
      </trkpt>
      <trkpt lat="43.5629" lon="1.99085">
        <ele>285</ele>
        <time>2010-01-01T00:11:48Z</time>
      </trkpt>
      <trkpt lat="43.56274" lon="1.99007">
        <ele>283</ele>
        <time>2010-01-01T00:12:12Z</time>
      </trkpt>
      <trkpt lat="43.56276" lon="1.98989">
        <ele>283</ele>
        <time>2010-01-01T00:12:17Z</time>
      </trkpt>
      <trkpt lat="43.56284" lon="1.9899">
        <ele>283</ele>
        <time>2010-01-01T00:12:20Z</time>
      </trkpt>
      <trkpt lat="43.56287" lon="1.98993">
        <ele>283</ele>
        <time>2010-01-01T00:12:22Z</time>
      </trkpt>
      <trkpt lat="43.5632" lon="1.99026">
        <ele>284</ele>
        <time>2010-01-01T00:12:38Z</time>
      </trkpt>
      <trkpt lat="43.56326" lon="1.99032">
        <ele>285</ele>
        <time>2010-01-01T00:12:41Z</time>
      </trkpt>
      <trkpt lat="43.56345" lon="1.99036">
        <ele>285</ele>
        <time>2010-01-01T00:12:49Z</time>
      </trkpt>
      <trkpt lat="43.56349" lon="1.99033">
        <ele>285</ele>
        <time>2010-01-01T00:12:50Z</time>
      </trkpt>
      <trkpt lat="43.56385" lon="1.98994">
        <ele>286</ele>
        <time>2010-01-01T00:13:09Z</time>
      </trkpt>
      <trkpt lat="43.56415" lon="1.98968">
        <ele>289</ele>
        <time>2010-01-01T00:13:23Z</time>
      </trkpt>
      <trkpt lat="43.56431" lon="1.98959">
        <ele>290</ele>
        <time>2010-01-01T00:13:30Z</time>
      </trkpt>
      <trkpt lat="43.56454" lon="1.98934">
        <ele>291</ele>
        <time>2010-01-01T00:13:42Z</time>
      </trkpt>
      <trkpt lat="43.56478" lon="1.98906">
        <ele>292</ele>
        <time>2010-01-01T00:13:54Z</time>
      </trkpt>
      <trkpt lat="43.56512" lon="1.98859">
        <ele>289</ele>
        <time>2010-01-01T00:14:13Z</time>
      </trkpt>
      <trkpt lat="43.56552" lon="1.98804">
        <ele>286</ele>
        <time>2010-01-01T00:14:36Z</time>
      </trkpt>
      <trkpt lat="43.5659" lon="1.98746">
        <ele>280</ele>
        <time>2010-01-01T00:14:59Z</time>
      </trkpt>
      <trkpt lat="43.56621" lon="1.98693">
        <ele>278</ele>
        <time>2010-01-01T00:15:18Z</time>
      </trkpt>
      <trkpt lat="43.56658" lon="1.98626">
        <ele>274</ele>
        <time>2010-01-01T00:15:43Z</time>
      </trkpt>
      <trkpt lat="43.56682" lon="1.98573">
        <ele>273</ele>
        <time>2010-01-01T00:16:01Z</time>
      </trkpt>
      <trkpt lat="43.56693" lon="1.98567">
        <ele>273</ele>
        <time>2010-01-01T00:16:06Z</time>
      </trkpt>
      <trkpt lat="43.56694" lon="1.98569">
        <ele>273</ele>
        <time>2010-01-01T00:16:07Z</time>
      </trkpt>
      <trkpt lat="43.5671" lon="1.98588">
        <ele>275</ele>
        <time>2010-01-01T00:16:15Z</time>
      </trkpt>
      <trkpt lat="43.56715" lon="1.98601">
        <ele>276</ele>
        <time>2010-01-01T00:16:19Z</time>
      </trkpt>
      <trkpt lat="43.56707" lon="1.98628">
        <ele>277</ele>
        <time>2010-01-01T00:16:28Z</time>
      </trkpt>
      <trkpt lat="43.56693" lon="1.98655">
        <ele>278</ele>
        <time>2010-01-01T00:16:37Z</time>
      </trkpt>
      <trkpt lat="43.5668" lon="1.98678">
        <ele>278</ele>
        <time>2010-01-01T00:16:46Z</time>
      </trkpt>
      <trkpt lat="43.5667" lon="1.98701">
        <ele>278</ele>
        <time>2010-01-01T00:16:54Z</time>
      </trkpt>
      <trkpt lat="43.56674" lon="1.98718">
        <ele>278</ele>
        <time>2010-01-01T00:16:59Z</time>
      </trkpt>
      <trkpt lat="43.56687" lon="1.98733">
        <ele>278</ele>
        <time>2010-01-01T00:17:06Z</time>
      </trkpt>
      <trkpt lat="43.56709" lon="1.98752">
        <ele>276</ele>
        <time>2010-01-01T00:17:16Z</time>
      </trkpt>
      <trkpt lat="43.56747" lon="1.98785">
        <ele>272</ele>
        <time>2010-01-01T00:17:34Z</time>
      </trkpt>
      <trkpt lat="43.56756" lon="1.98792">
        <ele>272</ele>
        <time>2010-01-01T00:17:38Z</time>
      </trkpt>
      <trkpt lat="43.56786" lon="1.98816">
        <ele>270</ele>
        <time>2010-01-01T00:17:52Z</time>
      </trkpt>
      <trkpt lat="43.56799" lon="1.98823">
        <ele>270</ele>
        <time>2010-01-01T00:17:57Z</time>
      </trkpt>
      <trkpt lat="43.56824" lon="1.98845">
        <ele>271</ele>
        <time>2010-01-01T00:18:10Z</time>
      </trkpt>
      <trkpt lat="43.56838" lon="1.98854">
        <ele>272</ele>
        <time>2010-01-01T00:18:16Z</time>
      </trkpt>
      <trkpt lat="43.56851" lon="1.98845">
        <ele>272</ele>
        <time>2010-01-01T00:18:21Z</time>
      </trkpt>
      <trkpt lat="43.56874" lon="1.98814">
        <ele>272</ele>
        <time>2010-01-01T00:18:34Z</time>
      </trkpt>
      <trkpt lat="43.56905" lon="1.98773">
        <ele>271</ele>
        <time>2010-01-01T00:18:51Z</time>
      </trkpt>
      <trkpt lat="43.56926" lon="1.98743">
        <ele>269</ele>
        <time>2010-01-01T00:19:04Z</time>
      </trkpt>
      <trkpt lat="43.56958" lon="1.98722">
        <ele>269</ele>
        <time>2010-01-01T00:19:18Z</time>
      </trkpt>
      <trkpt lat="43.5698" lon="1.98715">
        <ele>269</ele>
        <time>2010-01-01T00:19:27Z</time>
      </trkpt>
      <trkpt lat="43.57004" lon="1.98719">
        <ele>270</ele>
        <time>2010-01-01T00:19:37Z</time>
      </trkpt>
      <trkpt lat="43.57024" lon="1.98732">
        <ele>271</ele>
        <time>2010-01-01T00:19:45Z</time>
      </trkpt>
      <trkpt lat="43.57043" lon="1.9874">
        <ele>272</ele>
        <time>2010-01-01T00:19:54Z</time>
      </trkpt>
      <trkpt lat="43.5706" lon="1.98747">
        <ele>274</ele>
        <time>2010-01-01T00:20:00Z</time>
      </trkpt>
      <trkpt lat="43.57078" lon="1.98754">
        <ele>276</ele>
        <time>2010-01-01T00:20:08Z</time>
      </trkpt>
      <trkpt lat="43.57089" lon="1.98756">
        <ele>277</ele>
        <time>2010-01-01T00:20:12Z</time>
      </trkpt>
      <trkpt lat="43.571" lon="1.9876">
        <ele>278</ele>
        <time>2010-01-01T00:20:17Z</time>
      </trkpt>
      <trkpt lat="43.5711" lon="1.98768">
        <ele>280</ele>
        <time>2010-01-01T00:20:21Z</time>
      </trkpt>
      <trkpt lat="43.57121" lon="1.98777">
        <ele>282</ele>
        <time>2010-01-01T00:20:27Z</time>
      </trkpt>
      <trkpt lat="43.57132" lon="1.98788">
        <ele>284</ele>
        <time>2010-01-01T00:20:32Z</time>
      </trkpt>
      <trkpt lat="43.5714" lon="1.98796">
        <ele>285</ele>
        <time>2010-01-01T00:20:36Z</time>
      </trkpt>
      <trkpt lat="43.57149" lon="1.98804">
        <ele>286</ele>
        <time>2010-01-01T00:20:40Z</time>
      </trkpt>
      <trkpt lat="43.57161" lon="1.98815">
        <ele>287</ele>
        <time>2010-01-01T00:20:46Z</time>
      </trkpt>
      <trkpt lat="43.57175" lon="1.98828">
        <ele>289</ele>
        <time>2010-01-01T00:20:53Z</time>
      </trkpt>
      <trkpt lat="43.57186" lon="1.98844">
        <ele>291</ele>
        <time>2010-01-01T00:20:59Z</time>
      </trkpt>
      <trkpt lat="43.57194" lon="1.98867">
        <ele>294</ele>
        <time>2010-01-01T00:21:07Z</time>
      </trkpt>
      <trkpt lat="43.57197" lon="1.9889">
        <ele>295</ele>
        <time>2010-01-01T00:21:13Z</time>
      </trkpt>
      <trkpt lat="43.57192" lon="1.98919">
        <ele>295</ele>
        <time>2010-01-01T00:21:22Z</time>
      </trkpt>
      <trkpt lat="43.57184" lon="1.98949">
        <ele>292</ele>
        <time>2010-01-01T00:21:31Z</time>
      </trkpt>
      <trkpt lat="43.57182" lon="1.98975">
        <ele>292</ele>
        <time>2010-01-01T00:21:39Z</time>
      </trkpt>
      <trkpt lat="43.5719" lon="1.98988">
        <ele>294</ele>
        <time>2010-01-01T00:21:44Z</time>
      </trkpt>
      <trkpt lat="43.57198" lon="1.98995">
        <ele>295</ele>
        <time>2010-01-01T00:21:48Z</time>
      </trkpt>
      <trkpt lat="43.572" lon="1.99021">
        <ele>295</ele>
        <time>2010-01-01T00:21:55Z</time>
      </trkpt>
      <trkpt lat="43.57201" lon="1.99066">
        <ele>295</ele>
        <time>2010-01-01T00:22:08Z</time>
      </trkpt>
      <trkpt lat="43.57203" lon="1.99123">
        <ele>294</ele>
        <time>2010-01-01T00:22:25Z</time>
      </trkpt>
      <trkpt lat="43.57207" lon="1.99147">
        <ele>294</ele>
        <time>2010-01-01T00:22:32Z</time>
      </trkpt>
      <trkpt lat="43.57212" lon="1.99213">
        <ele>294</ele>
        <time>2010-01-01T00:22:51Z</time>
      </trkpt>
      <trkpt lat="43.57222" lon="1.99231">
        <ele>295</ele>
        <time>2010-01-01T00:22:58Z</time>
      </trkpt>
      <trkpt lat="43.57226" lon="1.99229">
        <ele>296</ele>
        <time>2010-01-01T00:22:59Z</time>
      </trkpt>
      <trkpt lat="43.5725" lon="1.99206">
        <ele>300</ele>
        <time>2010-01-01T00:23:11Z</time>
      </trkpt>
      <trkpt lat="43.57267" lon="1.99167">
        <ele>302</ele>
        <time>2010-01-01T00:23:24Z</time>
      </trkpt>
      <trkpt lat="43.57279" lon="1.99137">
        <ele>302</ele>
        <time>2010-01-01T00:23:34Z</time>
      </trkpt>
      <trkpt lat="43.57281" lon="1.99133">
        <ele>302</ele>
        <time>2010-01-01T00:23:36Z</time>
      </trkpt>
      <trkpt lat="43.57293" lon="1.99129">
        <ele>303</ele>
        <time>2010-01-01T00:23:40Z</time>
      </trkpt>
      <trkpt lat="43.57306" lon="1.99141">
        <ele>305</ele>
        <time>2010-01-01T00:23:47Z</time>
      </trkpt>
      <trkpt lat="43.57308" lon="1.99157">
        <ele>306</ele>
        <time>2010-01-01T00:23:52Z</time>
      </trkpt>
      <trkpt lat="43.57303" lon="1.99191">
        <ele>307</ele>
        <time>2010-01-01T00:24:02Z</time>
      </trkpt>
      <trkpt lat="43.57297" lon="1.99225">
        <ele>309</ele>
        <time>2010-01-01T00:24:12Z</time>
      </trkpt>
      <trkpt lat="43.57293" lon="1.99249">
        <ele>310</ele>
        <time>2010-01-01T00:24:19Z</time>
      </trkpt>
      <trkpt lat="43.57291" lon="1.99266">
        <ele>311</ele>
        <time>2010-01-01T00:24:24Z</time>
      </trkpt>
      <trkpt lat="43.57287" lon="1.99294">
        <ele>312</ele>
        <time>2010-01-01T00:24:32Z</time>
      </trkpt>
      <trkpt lat="43.57285" lon="1.99312">
        <ele>313</ele>
        <time>2010-01-01T00:24:38Z</time>
      </trkpt>
      <trkpt lat="43.57285" lon="1.99337">
        <ele>314</ele>
        <time>2010-01-01T00:24:45Z</time>
      </trkpt>
      <trkpt lat="43.57285" lon="1.99353">
        <ele>315</ele>
        <time>2010-01-01T00:24:49Z</time>
      </trkpt>
      <trkpt lat="43.57287" lon="1.99382">
        <ele>316</ele>
        <time>2010-01-01T00:24:58Z</time>
      </trkpt>
      <trkpt lat="43.57289" lon="1.99404">
        <ele>315</ele>
        <time>2010-01-01T00:25:04Z</time>
      </trkpt>
      <trkpt lat="43.57293" lon="1.99434">
        <ele>313</ele>
        <time>2010-01-01T00:25:13Z</time>
      </trkpt>
      <trkpt lat="43.57301" lon="1.99465">
        <ele>312</ele>
        <time>2010-01-01T00:25:23Z</time>
      </trkpt>
      <trkpt lat="43.57304" lon="1.99487">
        <ele>311</ele>
        <time>2010-01-01T00:25:29Z</time>
      </trkpt>
      <trkpt lat="43.57308" lon="1.99515">
        <ele>311</ele>
        <time>2010-01-01T00:25:37Z</time>
      </trkpt>
      <trkpt lat="43.5731" lon="1.99536">
        <ele>310</ele>
        <time>2010-01-01T00:25:44Z</time>
      </trkpt>
      <trkpt lat="43.57309" lon="1.99569">
        <ele>311</ele>
        <time>2010-01-01T00:25:53Z</time>
      </trkpt>
      <trkpt lat="43.57309" lon="1.99606">
        <ele>312</ele>
        <time>2010-01-01T00:26:04Z</time>
      </trkpt>
      <trkpt lat="43.57312" lon="1.99636">
        <ele>314</ele>
        <time>2010-01-01T00:26:13Z</time>
      </trkpt>
      <trkpt lat="43.57314" lon="1.99669">
        <ele>315</ele>
        <time>2010-01-01T00:26:22Z</time>
      </trkpt>
      <trkpt lat="43.57317" lon="1.99701">
        <ele>317</ele>
        <time>2010-01-01T00:26:32Z</time>
      </trkpt>
      <trkpt lat="43.57325" lon="1.99734">
        <ele>321</ele>
        <time>2010-01-01T00:26:42Z</time>
      </trkpt>
      <trkpt lat="43.57332" lon="1.99754">
        <ele>323</ele>
        <time>2010-01-01T00:26:48Z</time>
      </trkpt>
      <trkpt lat="43.5734" lon="1.99772">
        <ele>325</ele>
        <time>2010-01-01T00:26:54Z</time>
      </trkpt>
      <trkpt lat="43.57347" lon="1.99784">
        <ele>326</ele>
        <time>2010-01-01T00:26:59Z</time>
      </trkpt>
      <trkpt lat="43.57353" lon="1.99797">
        <ele>327</ele>
        <time>2010-01-01T00:27:03Z</time>
      </trkpt>
      <trkpt lat="43.57358" lon="1.99812">
        <ele>328</ele>
        <time>2010-01-01T00:27:08Z</time>
      </trkpt>
      <trkpt lat="43.57363" lon="1.99829">
        <ele>329</ele>
        <time>2010-01-01T00:27:13Z</time>
      </trkpt>
      <trkpt lat="43.57365" lon="1.99845">
        <ele>330</ele>
        <time>2010-01-01T00:27:18Z</time>
      </trkpt>
      <trkpt lat="43.57367" lon="1.9985">
        <ele>331</ele>
        <time>2010-01-01T00:27:19Z</time>
      </trkpt>
      <trkpt lat="43.57368" lon="1.99857">
        <ele>331</ele>
        <time>2010-01-01T00:27:22Z</time>
      </trkpt>
      <trkpt lat="43.57368" lon="1.99881">
        <ele>333</ele>
        <time>2010-01-01T00:27:29Z</time>
      </trkpt>
      <trkpt lat="43.57369" lon="1.99905">
        <ele>333</ele>
        <time>2010-01-01T00:27:36Z</time>
      </trkpt>
      <trkpt lat="43.5737" lon="1.99931">
        <ele>332</ele>
        <time>2010-01-01T00:27:43Z</time>
      </trkpt>
      <trkpt lat="43.57371" lon="1.99953">
        <ele>332</ele>
        <time>2010-01-01T00:27:50Z</time>
      </trkpt>
      <trkpt lat="43.57371" lon="1.99973">
        <ele>332</ele>
        <time>2010-01-01T00:27:55Z</time>
      </trkpt>
      <trkpt lat="43.57373" lon="1.99983">
        <ele>333</ele>
        <time>2010-01-01T00:27:58Z</time>
      </trkpt>
      <trkpt lat="43.57381" lon="1.99992">
        <ele>333</ele>
        <time>2010-01-01T00:28:03Z</time>
      </trkpt>
      <trkpt lat="43.57404" lon="2">
        <ele>332</ele>
        <time>2010-01-01T00:28:12Z</time>
      </trkpt>
      <trkpt lat="43.57426" lon="1.99997">
        <ele>329</ele>
        <time>2010-01-01T00:28:21Z</time>
      </trkpt>
      <trkpt lat="43.57434" lon="1.99995">
        <ele>327</ele>
        <time>2010-01-01T00:28:24Z</time>
      </trkpt>
      <trkpt lat="43.57478" lon="1.99979">
        <ele>315</ele>
        <time>2010-01-01T00:28:42Z</time>
      </trkpt>
      <trkpt lat="43.57508" lon="1.99969">
        <ele>312</ele>
        <time>2010-01-01T00:28:55Z</time>
      </trkpt>
      <trkpt lat="43.57529" lon="1.99975">
        <ele>310</ele>
        <time>2010-01-01T00:29:03Z</time>
      </trkpt>
      <trkpt lat="43.57532" lon="1.99979">
        <ele>310</ele>
        <time>2010-01-01T00:29:05Z</time>
      </trkpt>
      <trkpt lat="43.57548" lon="1.99987">
        <ele>309</ele>
        <time>2010-01-01T00:29:12Z</time>
      </trkpt>
      <trkpt lat="43.57557" lon="1.99986">
        <ele>307</ele>
        <time>2010-01-01T00:29:15Z</time>
      </trkpt>
      <trkpt lat="43.57567" lon="1.99978">
        <ele>306</ele>
        <time>2010-01-01T00:29:20Z</time>
      </trkpt>
      <trkpt lat="43.57593" lon="1.99942">
        <ele>300</ele>
        <time>2010-01-01T00:29:35Z</time>
      </trkpt>
      <trkpt lat="43.57598" lon="1.99934">
        <ele>298</ele>
        <time>2010-01-01T00:29:38Z</time>
      </trkpt>
      <trkpt lat="43.57632" lon="1.99907">
        <ele>292</ele>
        <time>2010-01-01T00:29:54Z</time>
      </trkpt>
      <trkpt lat="43.57648" lon="1.99904">
        <ele>291</ele>
        <time>2010-01-01T00:30:00Z</time>
      </trkpt>
      <trkpt lat="43.57684" lon="1.99894">
        <ele>289</ele>
        <time>2010-01-01T00:30:15Z</time>
      </trkpt>
      <trkpt lat="43.57711" lon="1.99882">
        <ele>287</ele>
        <time>2010-01-01T00:30:26Z</time>
      </trkpt>
      <trkpt lat="43.57746" lon="1.99856">
        <ele>279</ele>
        <time>2010-01-01T00:30:42Z</time>
      </trkpt>
      <trkpt lat="43.57776" lon="1.99837">
        <ele>277</ele>
        <time>2010-01-01T00:30:55Z</time>
      </trkpt>
      <trkpt lat="43.5778" lon="1.99825">
        <ele>276</ele>
        <time>2010-01-01T00:30:59Z</time>
      </trkpt>
      <trkpt lat="43.5777" lon="1.99816">
        <ele>276</ele>
        <time>2010-01-01T00:31:04Z</time>
      </trkpt>
      <trkpt lat="43.57749" lon="1.99797">
        <ele>277</ele>
        <time>2010-01-01T00:31:14Z</time>
      </trkpt>
      <trkpt lat="43.57753" lon="1.99786">
        <ele>277</ele>
        <time>2010-01-01T00:31:18Z</time>
      </trkpt>
      <trkpt lat="43.57758" lon="1.99785">
        <ele>277</ele>
        <time>2010-01-01T00:31:20Z</time>
      </trkpt>
      <trkpt lat="43.57782" lon="1.99778">
        <ele>274</ele>
        <time>2010-01-01T00:31:30Z</time>
      </trkpt>
      <trkpt lat="43.57803" lon="1.99758">
        <ele>272</ele>
        <time>2010-01-01T00:31:40Z</time>
      </trkpt>
      <trkpt lat="43.57833" lon="1.99703">
        <ele>270</ele>
        <time>2010-01-01T00:32:00Z</time>
      </trkpt>
      <trkpt lat="43.57853" lon="1.9965">
        <ele>267</ele>
        <time>2010-01-01T00:32:17Z</time>
      </trkpt>
      <trkpt lat="43.57864" lon="1.99604">
        <ele>268</ele>
        <time>2010-01-01T00:32:31Z</time>
      </trkpt>
      <trkpt lat="43.57866" lon="1.99593">
        <ele>268</ele>
        <time>2010-01-01T00:32:34Z</time>
      </trkpt>
      <trkpt lat="43.57867" lon="1.99551">
        <ele>267</ele>
        <time>2010-01-01T00:32:46Z</time>
      </trkpt>
      <trkpt lat="43.57864" lon="1.99527">
        <ele>268</ele>
        <time>2010-01-01T00:32:54Z</time>
      </trkpt>
      <trkpt lat="43.57862" lon="1.99512">
        <ele>268</ele>
        <time>2010-01-01T00:32:58Z</time>
      </trkpt>
      <trkpt lat="43.57854" lon="1.9948">
        <ele>267</ele>
        <time>2010-01-01T00:33:08Z</time>
      </trkpt>
      <trkpt lat="43.5784" lon="1.99426">
        <ele>264</ele>
        <time>2010-01-01T00:33:25Z</time>
      </trkpt>
      <trkpt lat="43.57848" lon="1.99406">
        <ele>262</ele>
        <time>2010-01-01T00:33:31Z</time>
      </trkpt>
      <trkpt lat="43.57858" lon="1.99391">
        <ele>260</ele>
        <time>2010-01-01T00:33:37Z</time>
      </trkpt>
      <trkpt lat="43.57871" lon="1.99383">
        <ele>259</ele>
        <time>2010-01-01T00:33:43Z</time>
      </trkpt>
      <trkpt lat="43.57874" lon="1.99379">
        <ele>258</ele>
        <time>2010-01-01T00:33:44Z</time>
      </trkpt>
      <trkpt lat="43.57902" lon="1.99338">
        <ele>254</ele>
        <time>2010-01-01T00:34:01Z</time>
      </trkpt>
      <trkpt lat="43.57926" lon="1.99304">
        <ele>254</ele>
        <time>2010-01-01T00:34:15Z</time>
      </trkpt>
      <trkpt lat="43.57955" lon="1.9927">
        <ele>251</ele>
        <time>2010-01-01T00:34:30Z</time>
      </trkpt>
      <trkpt lat="43.57991" lon="1.99246">
        <ele>247</ele>
        <time>2010-01-01T00:34:46Z</time>
      </trkpt>
      <trkpt lat="43.58025" lon="1.99222">
        <ele>244</ele>
        <time>2010-01-01T00:35:01Z</time>
      </trkpt>
      <trkpt lat="43.5806" lon="1.99204">
        <ele>244</ele>
        <time>2010-01-01T00:35:16Z</time>
      </trkpt>
      <trkpt lat="43.58078" lon="1.99182">
        <ele>243</ele>
        <time>2010-01-01T00:35:26Z</time>
      </trkpt>
      <trkpt lat="43.58083" lon="1.99179">
        <ele>243</ele>
        <time>2010-01-01T00:35:28Z</time>
      </trkpt>
      <trkpt lat="43.58138" lon="1.9915">
        <ele>241</ele>
        <time>2010-01-01T00:35:51Z</time>
      </trkpt>
      <trkpt lat="43.58154" lon="1.99128">
        <ele>241</ele>
        <time>2010-01-01T00:36:01Z</time>
      </trkpt>
      <trkpt lat="43.58158" lon="1.99114">
        <ele>241</ele>
        <time>2010-01-01T00:36:05Z</time>
      </trkpt>
      <trkpt lat="43.58162" lon="1.99088">
        <ele>240</ele>
        <time>2010-01-01T00:36:13Z</time>
      </trkpt>
      <trkpt lat="43.58173" lon="1.99081">
        <ele>240</ele>
        <time>2010-01-01T00:36:17Z</time>
      </trkpt>
      <trkpt lat="43.58198" lon="1.99101">
        <ele>241</ele>
        <time>2010-01-01T00:36:29Z</time>
      </trkpt>
      <trkpt lat="43.58207" lon="1.99107">
        <ele>242</ele>
        <time>2010-01-01T00:36:33Z</time>
      </trkpt>
      <trkpt lat="43.5821" lon="1.99109">
        <ele>242</ele>
        <time>2010-01-01T00:36:34Z</time>
      </trkpt>
      <trkpt lat="43.58217" lon="1.99104">
        <ele>243</ele>
        <time>2010-01-01T00:36:38Z</time>
      </trkpt>
      <trkpt lat="43.58215" lon="1.99092">
        <ele>242</ele>
        <time>2010-01-01T00:36:41Z</time>
      </trkpt>
      <trkpt lat="43.58214" lon="1.99064">
        <ele>241</ele>
        <time>2010-01-01T00:36:49Z</time>
      </trkpt>
      <trkpt lat="43.58219" lon="1.99039">
        <ele>241</ele>
        <time>2010-01-01T00:36:57Z</time>
      </trkpt>
      <trkpt lat="43.5823" lon="1.99007">
        <ele>240</ele>
        <time>2010-01-01T00:37:07Z</time>
      </trkpt>
      <trkpt lat="43.58247" lon="1.98979">
        <ele>238</ele>
        <time>2010-01-01T00:37:18Z</time>
      </trkpt>
      <trkpt lat="43.58268" lon="1.98943">
        <ele>236</ele>
        <time>2010-01-01T00:37:31Z</time>
      </trkpt>
      <trkpt lat="43.58276" lon="1.98928">
        <ele>236</ele>
        <time>2010-01-01T00:37:36Z</time>
      </trkpt>
      <trkpt lat="43.58281" lon="1.98886">
        <ele>234</ele>
        <time>2010-01-01T00:37:49Z</time>
      </trkpt>
      <trkpt lat="43.58282" lon="1.98851">
        <ele>232</ele>
        <time>2010-01-01T00:37:59Z</time>
      </trkpt>
      <trkpt lat="43.58288" lon="1.98841">
        <ele>232</ele>
        <time>2010-01-01T00:38:02Z</time>
      </trkpt>
      <trkpt lat="43.58309" lon="1.98809">
        <ele>231</ele>
        <time>2010-01-01T00:38:15Z</time>
      </trkpt>
      <trkpt lat="43.58351" lon="1.98768">
        <ele>231</ele>
        <time>2010-01-01T00:38:36Z</time>
      </trkpt>
      <trkpt lat="43.58393" lon="1.98737">
        <ele>232</ele>
        <time>2010-01-01T00:38:54Z</time>
      </trkpt>
      <trkpt lat="43.58415" lon="1.98724">
        <ele>232</ele>
        <time>2010-01-01T00:39:04Z</time>
      </trkpt>
      <trkpt lat="43.58429" lon="1.9871">
        <ele>232</ele>
        <time>2010-01-01T00:39:11Z</time>
      </trkpt>
      <trkpt lat="43.58464" lon="1.98669">
        <ele>230</ele>
        <time>2010-01-01T00:39:30Z</time>
      </trkpt>
      <trkpt lat="43.5849" lon="1.98633">
        <ele>227</ele>
        <time>2010-01-01T00:39:44Z</time>
      </trkpt>
      <trkpt lat="43.58524" lon="1.98583">
        <ele>226</ele>
        <time>2010-01-01T00:40:04Z</time>
      </trkpt>
      <trkpt lat="43.5854" lon="1.98558">
        <ele>225</ele>
        <time>2010-01-01T00:40:14Z</time>
      </trkpt>
      <trkpt lat="43.58559" lon="1.98557">
        <ele>225</ele>
        <time>2010-01-01T00:40:21Z</time>
      </trkpt>
      <trkpt lat="43.58575" lon="1.98568">
        <ele>225</ele>
        <time>2010-01-01T00:40:28Z</time>
      </trkpt>
      <trkpt lat="43.58594" lon="1.9858">
        <ele>224</ele>
        <time>2010-01-01T00:40:37Z</time>
      </trkpt>
      <trkpt lat="43.5862" lon="1.9859">
        <ele>222</ele>
        <time>2010-01-01T00:40:48Z</time>
      </trkpt>
      <trkpt lat="43.58636" lon="1.98614">
        <ele>222</ele>
        <time>2010-01-01T00:40:57Z</time>
      </trkpt>
      <trkpt lat="43.58637" lon="1.98626">
        <ele>222</ele>
        <time>2010-01-01T00:41:00Z</time>
      </trkpt>
      <trkpt lat="43.58644" lon="1.9869">
        <ele>225</ele>
        <time>2010-01-01T00:41:19Z</time>
      </trkpt>
      <trkpt lat="43.5865" lon="1.98727">
        <ele>227</ele>
        <time>2010-01-01T00:41:30Z</time>
      </trkpt>
      <trkpt lat="43.58654" lon="1.98745">
        <ele>229</ele>
        <time>2010-01-01T00:41:36Z</time>
      </trkpt>
      <trkpt lat="43.58657" lon="1.98768">
        <ele>231</ele>
        <time>2010-01-01T00:41:42Z</time>
      </trkpt>
      <trkpt lat="43.5866" lon="1.98785">
        <ele>233</ele>
        <time>2010-01-01T00:41:47Z</time>
      </trkpt>
      <trkpt lat="43.58661" lon="1.98805">
        <ele>235</ele>
        <time>2010-01-01T00:41:53Z</time>
      </trkpt>
      <trkpt lat="43.5866" lon="1.98823">
        <ele>236</ele>
        <time>2010-01-01T00:41:58Z</time>
      </trkpt>
      <trkpt lat="43.58659" lon="1.98849">
        <ele>239</ele>
        <time>2010-01-01T00:42:06Z</time>
      </trkpt>
      <trkpt lat="43.58656" lon="1.98871">
        <ele>241</ele>
        <time>2010-01-01T00:42:12Z</time>
      </trkpt>
      <trkpt lat="43.58651" lon="1.98891">
        <ele>244</ele>
        <time>2010-01-01T00:42:19Z</time>
      </trkpt>
      <trkpt lat="43.58642" lon="1.98905">
        <ele>244</ele>
        <time>2010-01-01T00:42:24Z</time>
      </trkpt>
      <trkpt lat="43.5863" lon="1.98924">
        <ele>245</ele>
        <time>2010-01-01T00:42:32Z</time>
      </trkpt>
      <trkpt lat="43.58616" lon="1.98948">
        <ele>245</ele>
        <time>2010-01-01T00:42:41Z</time>
      </trkpt>
      <trkpt lat="43.58603" lon="1.98976">
        <ele>245</ele>
        <time>2010-01-01T00:42:50Z</time>
      </trkpt>
      <trkpt lat="43.58592" lon="1.99016">
        <ele>245</ele>
        <time>2010-01-01T00:43:02Z</time>
      </trkpt>
      <trkpt lat="43.58583" lon="1.99052">
        <ele>245</ele>
        <time>2010-01-01T00:43:13Z</time>
      </trkpt>
      <trkpt lat="43.58564" lon="1.99093">
        <ele>247</ele>
        <time>2010-01-01T00:43:27Z</time>
      </trkpt>
      <trkpt lat="43.5854" lon="1.99126">
        <ele>247</ele>
        <time>2010-01-01T00:43:41Z</time>
      </trkpt>
      <trkpt lat="43.58506" lon="1.99164">
        <ele>249</ele>
        <time>2010-01-01T00:43:59Z</time>
      </trkpt>
      <trkpt lat="43.58475" lon="1.99197">
        <ele>249</ele>
        <time>2010-01-01T00:44:14Z</time>
      </trkpt>
      <trkpt lat="43.58445" lon="1.99228">
        <ele>249</ele>
        <time>2010-01-01T00:44:29Z</time>
      </trkpt>
      <trkpt lat="43.58411" lon="1.9926">
        <ele>252</ele>
        <time>2010-01-01T00:44:46Z</time>
      </trkpt>
      <trkpt lat="43.58392" lon="1.99275">
        <ele>254</ele>
        <time>2010-01-01T00:44:54Z</time>
      </trkpt>
      <trkpt lat="43.58368" lon="1.99297">
        <ele>258</ele>
        <time>2010-01-01T00:45:06Z</time>
      </trkpt>
      <trkpt lat="43.58354" lon="1.99309">
        <ele>260</ele>
        <time>2010-01-01T00:45:13Z</time>
      </trkpt>
      <trkpt lat="43.58335" lon="1.99327">
        <ele>261</ele>
        <time>2010-01-01T00:45:22Z</time>
      </trkpt>
      <trkpt lat="43.58321" lon="1.99343">
        <ele>261</ele>
        <time>2010-01-01T00:45:29Z</time>
      </trkpt>
      <trkpt lat="43.58312" lon="1.99354">
        <ele>262</ele>
        <time>2010-01-01T00:45:34Z</time>
      </trkpt>
      <trkpt lat="43.583" lon="1.9937">
        <ele>262</ele>
        <time>2010-01-01T00:45:41Z</time>
      </trkpt>
      <trkpt lat="43.58288" lon="1.99389">
        <ele>262</ele>
        <time>2010-01-01T00:45:48Z</time>
      </trkpt>
      <trkpt lat="43.58277" lon="1.99408">
        <ele>262</ele>
        <time>2010-01-01T00:45:55Z</time>
      </trkpt>
      <trkpt lat="43.58267" lon="1.99435">
        <ele>262</ele>
        <time>2010-01-01T00:46:04Z</time>
      </trkpt>
      <trkpt lat="43.58257" lon="1.99469">
        <ele>262</ele>
        <time>2010-01-01T00:46:14Z</time>
      </trkpt>
      <trkpt lat="43.58245" lon="1.99514">
        <ele>263</ele>
        <time>2010-01-01T00:46:28Z</time>
      </trkpt>
      <trkpt lat="43.58232" lon="1.99562">
        <ele>263</ele>
        <time>2010-01-01T00:46:43Z</time>
      </trkpt>
      <trkpt lat="43.58212" lon="1.99617">
        <ele>264</ele>
        <time>2010-01-01T00:47:01Z</time>
      </trkpt>
      <trkpt lat="43.58194" lon="1.99647">
        <ele>265</ele>
        <time>2010-01-01T00:47:12Z</time>
      </trkpt>
      <trkpt lat="43.58172" lon="1.99666">
        <ele>266</ele>
        <time>2010-01-01T00:47:23Z</time>
      </trkpt>
      <trkpt lat="43.58141" lon="1.99676">
        <ele>267</ele>
        <time>2010-01-01T00:47:35Z</time>
      </trkpt>
      <trkpt lat="43.58115" lon="1.99684">
        <ele>270</ele>
        <time>2010-01-01T00:47:46Z</time>
      </trkpt>
      <trkpt lat="43.58087" lon="1.99694">
        <ele>273</ele>
        <time>2010-01-01T00:47:58Z</time>
      </trkpt>
      <trkpt lat="43.58064" lon="1.99703">
        <ele>275</ele>
        <time>2010-01-01T00:48:07Z</time>
      </trkpt>
      <trkpt lat="43.58031" lon="1.99715">
        <ele>277</ele>
        <time>2010-01-01T00:48:21Z</time>
      </trkpt>
      <trkpt lat="43.57998" lon="1.9973">
        <ele>279</ele>
        <time>2010-01-01T00:48:35Z</time>
      </trkpt>
      <trkpt lat="43.57977" lon="1.99743">
        <ele>279</ele>
        <time>2010-01-01T00:48:44Z</time>
      </trkpt>
      <trkpt lat="43.57951" lon="1.99763">
        <ele>279</ele>
        <time>2010-01-01T00:48:56Z</time>
      </trkpt>
      <trkpt lat="43.57922" lon="1.99786">
        <ele>280</ele>
        <time>2010-01-01T00:49:10Z</time>
      </trkpt>
      <trkpt lat="43.57898" lon="1.99808">
        <ele>281</ele>
        <time>2010-01-01T00:49:21Z</time>
      </trkpt>
      <trkpt lat="43.57883" lon="1.99826">
        <ele>281</ele>
        <time>2010-01-01T00:49:29Z</time>
      </trkpt>
      <trkpt lat="43.57873" lon="1.99848">
        <ele>283</ele>
        <time>2010-01-01T00:49:36Z</time>
      </trkpt>
      <trkpt lat="43.57863" lon="1.99879">
        <ele>285</ele>
        <time>2010-01-01T00:49:46Z</time>
      </trkpt>
      <trkpt lat="43.57854" lon="1.99911">
        <ele>288</ele>
        <time>2010-01-01T00:49:56Z</time>
      </trkpt>
      <trkpt lat="43.57845" lon="1.99945">
        <ele>290</ele>
        <time>2010-01-01T00:50:07Z</time>
      </trkpt>
      <trkpt lat="43.57837" lon="1.99979">
        <ele>291</ele>
        <time>2010-01-01T00:50:17Z</time>
      </trkpt>
      <trkpt lat="43.57828" lon="2.00014">
        <ele>291</ele>
        <time>2010-01-01T00:50:28Z</time>
      </trkpt>
      <trkpt lat="43.57812" lon="2.00052">
        <ele>291</ele>
        <time>2010-01-01T00:50:40Z</time>
      </trkpt>
      <trkpt lat="43.578" lon="2.00078">
        <ele>293</ele>
        <time>2010-01-01T00:50:50Z</time>
      </trkpt>
      <trkpt lat="43.57785" lon="2.00107">
        <ele>294</ele>
        <time>2010-01-01T00:51:00Z</time>
      </trkpt>
      <trkpt lat="43.57768" lon="2.00134">
        <ele>295</ele>
        <time>2010-01-01T00:51:10Z</time>
      </trkpt>
      <trkpt lat="43.5775" lon="2.00151">
        <ele>295</ele>
        <time>2010-01-01T00:51:19Z</time>
      </trkpt>
      <trkpt lat="43.57738" lon="2.0016">
        <ele>296</ele>
        <time>2010-01-01T00:51:24Z</time>
      </trkpt>
      <trkpt lat="43.57717" lon="2.00176">
        <ele>296</ele>
        <time>2010-01-01T00:51:34Z</time>
      </trkpt>
      <trkpt lat="43.57702" lon="2.00188">
        <ele>296</ele>
        <time>2010-01-01T00:51:41Z</time>
      </trkpt>
      <trkpt lat="43.57686" lon="2.00201">
        <ele>296</ele>
        <time>2010-01-01T00:51:48Z</time>
      </trkpt>
      <trkpt lat="43.57672" lon="2.00215">
        <ele>296</ele>
        <time>2010-01-01T00:51:55Z</time>
      </trkpt>
      <trkpt lat="43.57661" lon="2.00229">
        <ele>296</ele>
        <time>2010-01-01T00:52:01Z</time>
      </trkpt>
      <trkpt lat="43.57653" lon="2.00247">
        <ele>297</ele>
        <time>2010-01-01T00:52:07Z</time>
      </trkpt>
      <trkpt lat="43.57646" lon="2.00265">
        <ele>298</ele>
        <time>2010-01-01T00:52:13Z</time>
      </trkpt>
      <trkpt lat="43.57642" lon="2.00288">
        <ele>301</ele>
        <time>2010-01-01T00:52:20Z</time>
      </trkpt>
      <trkpt lat="43.57639" lon="2.00316">
        <ele>304</ele>
        <time>2010-01-01T00:52:28Z</time>
      </trkpt>
      <trkpt lat="43.5764" lon="2.00346">
        <ele>307</ele>
        <time>2010-01-01T00:52:37Z</time>
      </trkpt>
      <trkpt lat="43.57645" lon="2.0038">
        <ele>308</ele>
        <time>2010-01-01T00:52:47Z</time>
      </trkpt>
      <trkpt lat="43.57646" lon="2.00406">
        <ele>309</ele>
        <time>2010-01-01T00:52:55Z</time>
      </trkpt>
      <trkpt lat="43.57642" lon="2.00431">
        <ele>311</ele>
        <time>2010-01-01T00:53:02Z</time>
      </trkpt>
      <trkpt lat="43.57631" lon="2.0046">
        <ele>311</ele>
        <time>2010-01-01T00:53:12Z</time>
      </trkpt>
      <trkpt lat="43.57619" lon="2.00484">
        <ele>313</ele>
        <time>2010-01-01T00:53:20Z</time>
      </trkpt>
      <trkpt lat="43.57603" lon="2.00506">
        <ele>315</ele>
        <time>2010-01-01T00:53:29Z</time>
      </trkpt>
      <trkpt lat="43.57586" lon="2.00523">
        <ele>319</ele>
        <time>2010-01-01T00:53:37Z</time>
      </trkpt>
      <trkpt lat="43.57565" lon="2.00539">
        <ele>321</ele>
        <time>2010-01-01T00:53:47Z</time>
      </trkpt>
      <trkpt lat="43.57544" lon="2.00554">
        <ele>322</ele>
        <time>2010-01-01T00:53:56Z</time>
      </trkpt>
      <trkpt lat="43.57529" lon="2.00564">
        <ele>324</ele>
        <time>2010-01-01T00:54:03Z</time>
      </trkpt>
      <trkpt lat="43.57516" lon="2.00571">
        <ele>325</ele>
        <time>2010-01-01T00:54:09Z</time>
      </trkpt>
      <trkpt lat="43.57502" lon="2.00584">
        <ele>326</ele>
        <time>2010-01-01T00:54:15Z</time>
      </trkpt>
      <trkpt lat="43.5749" lon="2.00599">
        <ele>326</ele>
        <time>2010-01-01T00:54:22Z</time>
      </trkpt>
      <trkpt lat="43.57479" lon="2.00618">
        <ele>327</ele>
        <time>2010-01-01T00:54:29Z</time>
      </trkpt>
      <trkpt lat="43.57474" lon="2.00633">
        <ele>327</ele>
        <time>2010-01-01T00:54:34Z</time>
      </trkpt>
      <trkpt lat="43.57471" lon="2.00647">
        <ele>328</ele>
        <time>2010-01-01T00:54:38Z</time>
      </trkpt>
      <trkpt lat="43.57468" lon="2.00664">
        <ele>328</ele>
        <time>2010-01-01T00:54:43Z</time>
      </trkpt>
      <trkpt lat="43.57466" lon="2.00675">
        <ele>329</ele>
        <time>2010-01-01T00:54:46Z</time>
      </trkpt>
      <trkpt lat="43.57464" lon="2.00701">
        <ele>329</ele>
        <time>2010-01-01T00:54:54Z</time>
      </trkpt>
      <trkpt lat="43.57464" lon="2.00728">
        <ele>330</ele>
        <time>2010-01-01T00:55:02Z</time>
      </trkpt>
      <trkpt lat="43.57471" lon="2.00767">
        <ele>329</ele>
        <time>2010-01-01T00:55:13Z</time>
      </trkpt>
      <trkpt lat="43.57469" lon="2.00801">
        <ele>328</ele>
        <time>2010-01-01T00:55:23Z</time>
      </trkpt>
      <trkpt lat="43.57457" lon="2.00833">
        <ele>329</ele>
        <time>2010-01-01T00:55:34Z</time>
      </trkpt>
      <trkpt lat="43.57439" lon="2.0087">
        <ele>331</ele>
        <time>2010-01-01T00:55:47Z</time>
      </trkpt>
      <trkpt lat="43.57419" lon="2.00895">
        <ele>330</ele>
        <time>2010-01-01T00:55:57Z</time>
      </trkpt>
      <trkpt lat="43.57412" lon="2.00912">
        <ele>329</ele>
        <time>2010-01-01T00:56:03Z</time>
      </trkpt>
      <trkpt lat="43.57406" lon="2.00951">
        <ele>331</ele>
        <time>2010-01-01T00:56:15Z</time>
      </trkpt>
      <trkpt lat="43.57398" lon="2.00982">
        <ele>334</ele>
        <time>2010-01-01T00:56:24Z</time>
      </trkpt>
      <trkpt lat="43.57396" lon="2.01009">
        <ele>336</ele>
        <time>2010-01-01T00:56:32Z</time>
      </trkpt>
      <trkpt lat="43.57397" lon="2.01045">
        <ele>337</ele>
        <time>2010-01-01T00:56:42Z</time>
      </trkpt>
      <trkpt lat="43.57395" lon="2.0109">
        <ele>339</ele>
        <time>2010-01-01T00:56:55Z</time>
      </trkpt>
      <trkpt lat="43.57387" lon="2.0113">
        <ele>341</ele>
        <time>2010-01-01T00:57:08Z</time>
      </trkpt>
      <trkpt lat="43.57374" lon="2.01162">
        <ele>342</ele>
        <time>2010-01-01T00:57:18Z</time>
      </trkpt>
      <trkpt lat="43.57355" lon="2.01194">
        <ele>342</ele>
        <time>2010-01-01T00:57:30Z</time>
      </trkpt>
      <trkpt lat="43.57337" lon="2.01225">
        <ele>345</ele>
        <time>2010-01-01T00:57:42Z</time>
      </trkpt>
      <trkpt lat="43.57321" lon="2.01255">
        <ele>346</ele>
        <time>2010-01-01T00:57:52Z</time>
      </trkpt>
      <trkpt lat="43.57308" lon="2.01279">
        <ele>346</ele>
        <time>2010-01-01T00:58:01Z</time>
      </trkpt>
      <trkpt lat="43.57296" lon="2.01301">
        <ele>348</ele>
        <time>2010-01-01T00:58:09Z</time>
      </trkpt>
      <trkpt lat="43.57297" lon="2.01319">
        <ele>348</ele>
        <time>2010-01-01T00:58:14Z</time>
      </trkpt>
      <trkpt lat="43.57313" lon="2.01337">
        <ele>344</ele>
        <time>2010-01-01T00:58:23Z</time>
      </trkpt>
      <trkpt lat="43.5734" lon="2.01362">
        <ele>341</ele>
        <time>2010-01-01T00:58:36Z</time>
      </trkpt>
      <trkpt lat="43.5736" lon="2.01389">
        <ele>340</ele>
        <time>2010-01-01T00:58:47Z</time>
      </trkpt>
      <trkpt lat="43.57376" lon="2.01436">
        <ele>338</ele>
        <time>2010-01-01T00:59:02Z</time>
      </trkpt>
      <trkpt lat="43.57375" lon="2.01471">
        <ele>338</ele>
        <time>2010-01-01T00:59:12Z</time>
      </trkpt>
      <trkpt lat="43.57371" lon="2.01491">
        <ele>337</ele>
        <time>2010-01-01T00:59:18Z</time>
      </trkpt>
      <trkpt lat="43.57355" lon="2.01533">
        <ele>338</ele>
        <time>2010-01-01T00:59:32Z</time>
      </trkpt>
      <trkpt lat="43.57336" lon="2.0155">
        <ele>339</ele>
        <time>2010-01-01T00:59:41Z</time>
      </trkpt>
      <trkpt lat="43.57322" lon="2.01546">
        <ele>340</ele>
        <time>2010-01-01T00:59:47Z</time>
      </trkpt>
      <trkpt lat="43.57293" lon="2.01523">
        <ele>343</ele>
        <time>2010-01-01T01:00:00Z</time>
      </trkpt>
      <trkpt lat="43.57265" lon="2.01503">
        <ele>345</ele>
        <time>2010-01-01T01:00:13Z</time>
      </trkpt>
      <trkpt lat="43.57245" lon="2.0149">
        <ele>347</ele>
        <time>2010-01-01T01:00:22Z</time>
      </trkpt>
      <trkpt lat="43.57229" lon="2.01489">
        <ele>347</ele>
        <time>2010-01-01T01:00:28Z</time>
      </trkpt>
      <trkpt lat="43.57217" lon="2.01502">
        <ele>346</ele>
        <time>2010-01-01T01:00:34Z</time>
      </trkpt>
      <trkpt lat="43.57201" lon="2.0153">
        <ele>346</ele>
        <time>2010-01-01T01:00:44Z</time>
      </trkpt>
      <trkpt lat="43.57173" lon="2.01583">
        <ele>342</ele>
        <time>2010-01-01T01:01:03Z</time>
      </trkpt>
      <trkpt lat="43.57149" lon="2.01619">
        <ele>340</ele>
        <time>2010-01-01T01:01:18Z</time>
      </trkpt>
      <trkpt lat="43.57144" lon="2.01625">
        <ele>340</ele>
        <time>2010-01-01T01:01:20Z</time>
      </trkpt>
      <trkpt lat="43.57127" lon="2.01637">
        <ele>340</ele>
        <time>2010-01-01T01:01:28Z</time>
      </trkpt>
      <trkpt lat="43.57089" lon="2.01648">
        <ele>341</ele>
        <time>2010-01-01T01:01:43Z</time>
      </trkpt>
      <trkpt lat="43.5708" lon="2.01651">
        <ele>341</ele>
        <time>2010-01-01T01:01:47Z</time>
      </trkpt>
      <trkpt lat="43.57059" lon="2.01655">
        <ele>342</ele>
        <time>2010-01-01T01:01:56Z</time>
      </trkpt>
      <trkpt lat="43.57043" lon="2.01657">
        <ele>342</ele>
        <time>2010-01-01T01:02:02Z</time>
      </trkpt>
      <trkpt lat="43.57028" lon="2.01677">
        <ele>341</ele>
        <time>2010-01-01T01:02:10Z</time>
      </trkpt>
      <trkpt lat="43.57008" lon="2.01714">
        <ele>341</ele>
        <time>2010-01-01T01:02:24Z</time>
      </trkpt>
      <trkpt lat="43.56999" lon="2.01728">
        <ele>341</ele>
        <time>2010-01-01T01:02:29Z</time>
      </trkpt>
      <trkpt lat="43.56962" lon="2.01767">
        <ele>341</ele>
        <time>2010-01-01T01:02:48Z</time>
      </trkpt>
      <trkpt lat="43.56952" lon="2.01777">
        <ele>341</ele>
        <time>2010-01-01T01:02:53Z</time>
      </trkpt>
      <trkpt lat="43.56933" lon="2.01772">
        <ele>341</ele>
        <time>2010-01-01T01:03:00Z</time>
      </trkpt>
      <trkpt lat="43.56921" lon="2.01755">
        <ele>339</ele>
        <time>2010-01-01T01:03:07Z</time>
      </trkpt>
      <trkpt lat="43.56906" lon="2.01753">
        <ele>338</ele>
        <time>2010-01-01T01:03:13Z</time>
      </trkpt>
      <trkpt lat="43.5689" lon="2.01772">
        <ele>336</ele>
        <time>2010-01-01T01:03:22Z</time>
      </trkpt>
      <trkpt lat="43.56887" lon="2.0177">
        <ele>335</ele>
        <time>2010-01-01T01:03:23Z</time>
      </trkpt>
      <trkpt lat="43.56891" lon="2.01758">
        <ele>336</ele>
        <time>2010-01-01T01:03:27Z</time>
      </trkpt>
      <trkpt lat="43.56895" lon="2.01754">
        <ele>336</ele>
        <time>2010-01-01T01:03:29Z</time>
      </trkpt>
      <trkpt lat="43.56906" lon="2.01744">
        <ele>337</ele>
        <time>2010-01-01T01:03:34Z</time>
      </trkpt>
      <trkpt lat="43.56941" lon="2.01698">
        <ele>336</ele>
        <time>2010-01-01T01:03:54Z</time>
      </trkpt>
      <trkpt lat="43.56947" lon="2.01689">
        <ele>336</ele>
        <time>2010-01-01T01:03:57Z</time>
      </trkpt>
      <trkpt lat="43.5698" lon="2.01631">
        <ele>335</ele>
        <time>2010-01-01T01:04:19Z</time>
      </trkpt>
      <trkpt lat="43.56998" lon="2.01581">
        <ele>332</ele>
        <time>2010-01-01T01:04:35Z</time>
      </trkpt>
      <trkpt lat="43.57016" lon="2.01515">
        <ele>335</ele>
        <time>2010-01-01T01:04:55Z</time>
      </trkpt>
      <trkpt lat="43.57028" lon="2.01461">
        <ele>336</ele>
        <time>2010-01-01T01:05:12Z</time>
      </trkpt>
      <trkpt lat="43.5703" lon="2.01408">
        <ele>337</ele>
        <time>2010-01-01T01:05:27Z</time>
      </trkpt>
      <trkpt lat="43.5703" lon="2.01403">
        <ele>337</ele>
        <time>2010-01-01T01:05:28Z</time>
      </trkpt>
      <trkpt lat="43.57023" lon="2.01382">
        <ele>335</ele>
        <time>2010-01-01T01:05:35Z</time>
      </trkpt>
      <trkpt lat="43.57012" lon="2.01338">
        <ele>332</ele>
        <time>2010-01-01T01:05:49Z</time>
      </trkpt>
      <trkpt lat="43.57006" lon="2.01326">
        <ele>330</ele>
        <time>2010-01-01T01:05:53Z</time>
      </trkpt>
      <trkpt lat="43.57002" lon="2.01309">
        <ele>328</ele>
        <time>2010-01-01T01:05:58Z</time>
      </trkpt>
      <trkpt lat="43.56994" lon="2.01293">
        <ele>325</ele>
        <time>2010-01-01T01:06:04Z</time>
      </trkpt>
      <trkpt lat="43.56983" lon="2.01275">
        <ele>321</ele>
        <time>2010-01-01T01:06:11Z</time>
      </trkpt>
      <trkpt lat="43.56948" lon="2.01218">
        <ele>312</ele>
        <time>2010-01-01T01:06:32Z</time>
      </trkpt>
      <trkpt lat="43.56912" lon="2.0115">
        <ele>305</ele>
        <time>2010-01-01T01:06:57Z</time>
      </trkpt>
      <trkpt lat="43.56892" lon="2.01118">
        <ele>304</ele>
        <time>2010-01-01T01:07:09Z</time>
      </trkpt>
      <trkpt lat="43.56889" lon="2.01095">
        <ele>304</ele>
        <time>2010-01-01T01:07:16Z</time>
      </trkpt>
      <trkpt lat="43.56892" lon="2.01088">
        <ele>304</ele>
        <time>2010-01-01T01:07:18Z</time>
      </trkpt>
      <trkpt lat="43.569" lon="2.01066">
        <ele>303</ele>
        <time>2010-01-01T01:07:25Z</time>
      </trkpt>
      <trkpt lat="43.56919" lon="2.01011">
        <ele>301</ele>
        <time>2010-01-01T01:07:43Z</time>
      </trkpt>
      <trkpt lat="43.56942" lon="2.00954">
        <ele>303</ele>
        <time>2010-01-01T01:08:02Z</time>
      </trkpt>
      <trkpt lat="43.56959" lon="2.00914">
        <ele>305</ele>
        <time>2010-01-01T01:08:15Z</time>
      </trkpt>
      <trkpt lat="43.56965" lon="2.00871">
        <ele>304</ele>
        <time>2010-01-01T01:08:28Z</time>
      </trkpt>
      <trkpt lat="43.56958" lon="2.00836">
        <ele>302</ele>
        <time>2010-01-01T01:08:39Z</time>
      </trkpt>
      <trkpt lat="43.56945" lon="2.00817">
        <ele>302</ele>
        <time>2010-01-01T01:08:46Z</time>
      </trkpt>
      <trkpt lat="43.56947" lon="2.00806">
        <ele>302</ele>
        <time>2010-01-01T01:08:49Z</time>
      </trkpt>
      <trkpt lat="43.56935" lon="2.00792">
        <ele>300</ele>
        <time>2010-01-01T01:08:55Z</time>
      </trkpt>
      <trkpt lat="43.56909" lon="2.00786">
        <ele>299</ele>
        <time>2010-01-01T01:09:06Z</time>
      </trkpt>
      <trkpt lat="43.56905" lon="2.00772">
        <ele>298</ele>
        <time>2010-01-01T01:09:10Z</time>
      </trkpt>
      <trkpt lat="43.56907" lon="2.00766">
        <ele>298</ele>
        <time>2010-01-01T01:09:12Z</time>
      </trkpt>
      <trkpt lat="43.56934" lon="2.00699">
        <ele>297</ele>
        <time>2010-01-01T01:09:35Z</time>
      </trkpt>
      <trkpt lat="43.56946" lon="2.00672">
        <ele>297</ele>
        <time>2010-01-01T01:09:44Z</time>
      </trkpt>
      <trkpt lat="43.56964" lon="2.00645">
        <ele>297</ele>
        <time>2010-01-01T01:09:54Z</time>
      </trkpt>
      <trkpt lat="43.56986" lon="2.00576">
        <ele>297</ele>
        <time>2010-01-01T01:10:16Z</time>
      </trkpt>
      <trkpt lat="43.56996" lon="2.00538">
        <ele>296</ele>
        <time>2010-01-01T01:10:28Z</time>
      </trkpt>
      <trkpt lat="43.56996" lon="2.00528">
        <ele>296</ele>
        <time>2010-01-01T01:10:31Z</time>
      </trkpt>
    </trkseg>
  </trk>
</gpx>